PWSweather.com
Personal Weather Stations
Station Observations
KIDNAMPA57
Canyon County Idaho, Nampa, ID 83687

Canyon County IdahoNampa, ID 83687

Lat: 43.587235, Lon: -116.49831979999999

Elevation: 2615

Station Type: Davis Vantage Pro 2

www.rockinglweather.com

High Low Average
Temperature 33.9°F1.1°C 19.5°F-6.9°C 25.5°F-3.6°C
Dew Point 20.7°F-6.3°C 14.2°F-9.9°C 17.3°F-8.2°C
Winds 12.0 mph 19.3 kmh Calm Calm 4.0 mph SE6.4 kmh SE
Wind Gusts 16.0 mph25.7 kmh 2.0 mph3.2 kmh 8.0 mph12.9 kmh
Humidity 81% 56% 71%
Pressure 30.50 in1032.8 mb 30.39 in1029.1 mb -
Precipitation 0.00 in0.0 mm - -
Hour Temp Dew Point Humidity Winds Wind Gusts Pressure Precip Precip Rate Daily Precip Total
12:00 AM 22.2°F-5.4°C 16.7°F-8.5°C 79% 1.0 mph SE1.6 kmh SE 5.0 mph8.0 kmh 30.43 in1030.5 mb 0.00 in0.0 mm 0.00 in0.0 mm 0.00 in0.0 mm
12:05 AM 22.2°F-5.4°C 16.7°F-8.5°C 79% 4.0 mph SSE6.4 kmh SSE 7.0 mph11.3 kmh 30.43 in1030.5 mb 0.00 in0.0 mm 0.00 in0.0 mm 0.00 in0.0 mm
12:10 AM 22.2°F-5.4°C 16.7°F-8.5°C 79% 6.0 mph SE9.7 kmh SE 7.0 mph11.3 kmh 30.43 in1030.5 mb 0.00 in0.0 mm 0.00 in0.0 mm 0.00 in0.0 mm
12:15 AM 22.3°F-5.4°C 16.5°F-8.6°C 78% 4.0 mph SE6.4 kmh SE 9.0 mph14.5 kmh 30.43 in1030.5 mb 0.00 in0.0 mm 0.00 in0.0 mm 0.00 in0.0 mm
12:20 AM 22.3°F-5.4°C 16.8°F-8.4°C 79% 7.0 mph SE11.3 kmh SE 8.0 mph12.9 kmh 30.43 in1030.5 mb 0.00 in0.0 mm 0.00 in0.0 mm 0.00 in0.0 mm
12:25 AM 22.3°F-5.4°C 16.8°F-8.4°C 79% 5.0 mph SE8.0 kmh SE 8.0 mph12.9 kmh 30.42 in1030.1 mb 0.00 in0.0 mm 0.00 in0.0 mm 0.00 in0.0 mm
12:30 AM 22.2°F-5.4°C 16.7°F-8.5°C 79% 2.0 mph SE3.2 kmh SE 8.0 mph12.9 kmh 30.43 in1030.5 mb 0.00 in0.0 mm 0.00 in0.0 mm 0.00 in0.0 mm
12:35 AM 22.2°F-5.4°C 16.7°F-8.5°C 79% 6.0 mph SE9.7 kmh SE 8.0 mph12.9 kmh 30.42 in1030.1 mb 0.00 in0.0 mm 0.00 in0.0 mm 0.00 in0.0 mm
12:40 AM 22.3°F-5.4°C 16.8°F-8.4°C 79% 7.0 mph SE11.3 kmh SE 9.0 mph14.5 kmh 30.42 in1030.1 mb 0.00 in0.0 mm 0.00 in0.0 mm 0.00 in0.0 mm
12:45 AM 22.5°F-5.3°C 17.0°F-8.3°C 79% 3.0 mph SE4.8 kmh SE 11.0 mph17.7 kmh 30.42 in1030.1 mb 0.00 in0.0 mm 0.00 in0.0 mm 0.00 in0.0 mm
12:50 AM 22.7°F-5.2°C 17.2°F-8.2°C 79% 3.0 mph SSE4.8 kmh SSE 9.0 mph14.5 kmh 30.42 in1030.1 mb 0.00 in0.0 mm 0.00 in0.0 mm 0.00 in0.0 mm
12:55 AM 22.8°F-5.1°C 17.0°F-8.3°C 78% 7.0 mph SE11.3 kmh SE 9.0 mph14.5 kmh 30.42 in1030.1 mb 0.00 in0.0 mm 0.00 in0.0 mm 0.00 in0.0 mm
01:00 AM 22.8°F-5.1°C 17.0°F-8.3°C 78% 9.0 mph SE14.5 kmh SE 10.0 mph16.1 kmh 30.43 in1030.5 mb 0.00 in0.0 mm 0.00 in0.0 mm 0.00 in0.0 mm
01:05 AM 22.9°F-5.1°C 17.1°F-8.3°C 78% 3.0 mph SE4.8 kmh SE 8.0 mph12.9 kmh 30.43 in1030.5 mb 0.00 in0.0 mm 0.00 in0.0 mm 0.00 in0.0 mm
01:10 AM 22.8°F-5.1°C 17.0°F-8.3°C 78% 5.0 mph SE8.0 kmh SE 9.0 mph14.5 kmh 30.43 in1030.5 mb 0.00 in0.0 mm 0.00 in0.0 mm 0.00 in0.0 mm
01:15 AM 22.7°F-5.2°C 16.9°F-8.4°C 78% 5.0 mph SE8.0 kmh SE 9.0 mph14.5 kmh 30.44 in1030.8 mb 0.00 in0.0 mm 0.00 in0.0 mm 0.00 in0.0 mm
01:20 AM 22.6°F-5.2°C 16.8°F-8.4°C 78% 4.0 mph SE6.4 kmh SE 8.0 mph12.9 kmh 30.44 in1030.8 mb 0.00 in0.0 mm 0.00 in0.0 mm 0.00 in0.0 mm
01:25 AM 22.5°F-5.3°C 17.0°F-8.3°C 79% 7.0 mph SE11.3 kmh SE 10.0 mph16.1 kmh 30.43 in1030.5 mb 0.00 in0.0 mm 0.00 in0.0 mm 0.00 in0.0 mm
01:30 AM 22.4°F-5.3°C 16.9°F-8.4°C 79% 2.0 mph SE3.2 kmh SE 10.0 mph16.1 kmh 30.43 in1030.5 mb 0.00 in0.0 mm 0.00 in0.0 mm 0.00 in0.0 mm
01:35 AM 22.4°F-5.3°C 16.9°F-8.4°C 79% 5.0 mph SE8.0 kmh SE 9.0 mph14.5 kmh 30.43 in1030.5 mb 0.00 in0.0 mm 0.00 in0.0 mm 0.00 in0.0 mm
01:40 AM 22.3°F-5.4°C 16.8°F-8.4°C 79% 6.0 mph SE9.7 kmh SE 10.0 mph16.1 kmh 30.43 in1030.5 mb 0.00 in0.0 mm 0.00 in0.0 mm 0.00 in0.0 mm
01:45 AM 22.4°F-5.3°C 16.9°F-8.4°C 79% 7.0 mph SE11.3 kmh SE 11.0 mph17.7 kmh 30.44 in1030.8 mb 0.00 in0.0 mm 0.00 in0.0 mm 0.00 in0.0 mm
01:50 AM 22.4°F-5.3°C 16.6°F-8.6°C 78% 5.0 mph ESE8.0 kmh ESE 10.0 mph16.1 kmh 30.44 in1030.8 mb 0.00 in0.0 mm 0.00 in0.0 mm 0.00 in0.0 mm
01:55 AM 22.4°F-5.3°C 16.6°F-8.6°C 78% 4.0 mph SE6.4 kmh SE 10.0 mph16.1 kmh 30.44 in1030.8 mb 0.00 in0.0 mm 0.00 in0.0 mm 0.00 in0.0 mm
02:00 AM 22.3°F-5.4°C 16.2°F-8.8°C 77% 4.0 mph SE6.4 kmh SE 10.0 mph16.1 kmh 30.44 in1030.8 mb 0.00 in0.0 mm 0.00 in0.0 mm 0.00 in0.0 mm
02:05 AM 22.3°F-5.4°C 16.2°F-8.8°C 77% 11.0 mph ESE17.7 kmh ESE 11.0 mph17.7 kmh 30.44 in1030.8 mb 0.00 in0.0 mm 0.00 in0.0 mm 0.00 in0.0 mm
02:10 AM 22.2°F-5.4°C 15.8°F-9.0°C 76% 4.0 mph SE6.4 kmh SE 11.0 mph17.7 kmh 30.45 in1031.2 mb 0.00 in0.0 mm 0.00 in0.0 mm 0.00 in0.0 mm
02:15 AM 22.1°F-5.5°C 15.7°F-9.1°C 76% 2.0 mph SE3.2 kmh SE 11.0 mph17.7 kmh 30.46 in1031.5 mb 0.00 in0.0 mm 0.00 in0.0 mm 0.00 in0.0 mm
02:20 AM 21.8°F-5.7°C 15.4°F-9.2°C 76% 2.0 mph SSE3.2 kmh SSE 6.0 mph9.7 kmh 30.45 in1031.2 mb 0.00 in0.0 mm 0.00 in0.0 mm 0.00 in0.0 mm
02:25 AM 21.7°F-5.7°C 15.6°F-9.1°C 77% 3.0 mph SE4.8 kmh SE 8.0 mph12.9 kmh 30.46 in1031.5 mb 0.00 in0.0 mm 0.00 in0.0 mm 0.00 in0.0 mm
02:30 AM 21.4°F-5.9°C 15.3°F-9.3°C 77% 3.0 mph SE4.8 kmh SE 9.0 mph14.5 kmh 30.45 in1031.2 mb 0.00 in0.0 mm 0.00 in0.0 mm 0.00 in0.0 mm
02:35 AM 21.2°F-6.0°C 15.1°F-9.4°C 77% 4.0 mph SE6.4 kmh SE 8.0 mph12.9 kmh 30.45 in1031.2 mb 0.00 in0.0 mm 0.00 in0.0 mm 0.00 in0.0 mm
02:40 AM 21.1°F-6.1°C 15.3°F-9.3°C 78% 1.0 mph SE1.6 kmh SE 8.0 mph12.9 kmh 30.45 in1031.2 mb 0.00 in0.0 mm 0.00 in0.0 mm 0.00 in0.0 mm
02:45 AM 21.0°F-6.1°C 15.2°F-9.3°C 78% 4.0 mph ESE6.4 kmh ESE 8.0 mph12.9 kmh 30.44 in1030.8 mb 0.00 in0.0 mm 0.00 in0.0 mm 0.00 in0.0 mm
02:50 AM 20.9°F-6.2°C 15.1°F-9.4°C 78% 4.0 mph SSE6.4 kmh SSE 8.0 mph12.9 kmh 30.44 in1030.8 mb 0.00 in0.0 mm 0.00 in0.0 mm 0.00 in0.0 mm
02:55 AM 20.8°F-6.2°C 15.0°F-9.4°C 78% 4.0 mph SE6.4 kmh SE 8.0 mph12.9 kmh 30.45 in1031.2 mb 0.00 in0.0 mm 0.00 in0.0 mm 0.00 in0.0 mm
03:00 AM 20.7°F-6.3°C 14.9°F-9.5°C 78% 2.0 mph SE3.2 kmh SE 8.0 mph12.9 kmh 30.45 in1031.2 mb 0.00 in0.0 mm 0.00 in0.0 mm 0.00 in0.0 mm
03:05 AM 20.6°F-6.3°C 14.8°F-9.6°C 78% 3.0 mph SE4.8 kmh SE 5.0 mph8.0 kmh 30.45 in1031.2 mb 0.00 in0.0 mm 0.00 in0.0 mm 0.00 in0.0 mm
03:10 AM 20.5°F-6.4°C 14.7°F-9.6°C 78% 4.0 mph SE6.4 kmh SE 6.0 mph9.7 kmh 30.45 in1031.2 mb 0.00 in0.0 mm 0.00 in0.0 mm 0.00 in0.0 mm
03:15 AM 20.5°F-6.4°C 14.7°F-9.6°C 78% 6.0 mph SE9.7 kmh SE 6.0 mph9.7 kmh 30.45 in1031.2 mb 0.00 in0.0 mm 0.00 in0.0 mm 0.00 in0.0 mm
03:20 AM 20.7°F-6.3°C 14.9°F-9.5°C 78% 5.0 mph SE8.0 kmh SE 8.0 mph12.9 kmh 30.45 in1031.2 mb 0.00 in0.0 mm 0.00 in0.0 mm 0.00 in0.0 mm
03:25 AM 20.7°F-6.3°C 14.9°F-9.5°C 78% 5.0 mph SE8.0 kmh SE 8.0 mph12.9 kmh 30.45 in1031.2 mb 0.00 in0.0 mm 0.00 in0.0 mm 0.00 in0.0 mm
03:30 AM 20.8°F-6.2°C 15.0°F-9.4°C 78% 7.0 mph SE11.3 kmh SE 8.0 mph12.9 kmh 30.45 in1031.2 mb 0.00 in0.0 mm 0.00 in0.0 mm 0.00 in0.0 mm
03:35 AM 20.7°F-6.3°C 14.6°F-9.7°C 77% 2.0 mph SE3.2 kmh SE 7.0 mph11.3 kmh 30.45 in1031.2 mb 0.00 in0.0 mm 0.00 in0.0 mm 0.00 in0.0 mm
03:40 AM 20.7°F-6.3°C 14.6°F-9.7°C 77% 3.0 mph SE4.8 kmh SE 9.0 mph14.5 kmh 30.45 in1031.2 mb 0.00 in0.0 mm 0.00 in0.0 mm 0.00 in0.0 mm
03:45 AM 20.6°F-6.3°C 14.8°F-9.6°C 78% 3.0 mph SE4.8 kmh SE 9.0 mph14.5 kmh 30.46 in1031.5 mb 0.00 in0.0 mm 0.00 in0.0 mm 0.00 in0.0 mm
03:50 AM 20.5°F-6.4°C 14.7°F-9.6°C 78% 1.0 mph ESE1.6 kmh ESE 6.0 mph9.7 kmh 30.46 in1031.5 mb 0.00 in0.0 mm 0.00 in0.0 mm 0.00 in0.0 mm
03:55 AM 20.5°F-6.4°C 14.7°F-9.6°C 78% 3.0 mph SE4.8 kmh SE 7.0 mph11.3 kmh 30.46 in1031.5 mb 0.00 in0.0 mm 0.00 in0.0 mm 0.00 in0.0 mm
04:00 AM 20.4°F-6.4°C 14.7°F-9.6°C 78% 4.0 mph ESE6.4 kmh ESE 7.0 mph11.3 kmh 30.46 in1031.5 mb 0.00 in0.0 mm 0.00 in0.0 mm 0.00 in0.0 mm
04:05 AM 20.4°F-6.4°C 14.7°F-9.6°C 78% 2.0 mph SE3.2 kmh SE 7.0 mph11.3 kmh 30.46 in1031.5 mb 0.00 in0.0 mm 0.00 in0.0 mm 0.00 in0.0 mm
04:10 AM 20.3°F-6.5°C 14.6°F-9.7°C 78% 5.0 mph ESE8.0 kmh ESE 8.0 mph12.9 kmh 30.47 in1031.8 mb 0.00 in0.0 mm 0.00 in0.0 mm 0.00 in0.0 mm
04:15 AM 20.3°F-6.5°C 14.6°F-9.7°C 78% 3.0 mph SE4.8 kmh SE 8.0 mph12.9 kmh 30.47 in1031.8 mb 0.00 in0.0 mm 0.00 in0.0 mm 0.00 in0.0 mm
04:20 AM 20.3°F-6.5°C 14.6°F-9.7°C 78% 3.0 mph SE4.8 kmh SE 6.0 mph9.7 kmh 30.47 in1031.8 mb 0.00 in0.0 mm 0.00 in0.0 mm 0.00 in0.0 mm
04:25 AM 20.1°F-6.6°C 14.4°F-9.8°C 78% 3.0 mph SE4.8 kmh SE 6.0 mph9.7 kmh 30.47 in1031.8 mb 0.00 in0.0 mm 0.00 in0.0 mm 0.00 in0.0 mm
04:30 AM 20.1°F-6.6°C 14.4°F-9.8°C 78% 2.0 mph SE3.2 kmh SE 6.0 mph9.7 kmh 30.47 in1031.8 mb 0.00 in0.0 mm 0.00 in0.0 mm 0.00 in0.0 mm
04:35 AM 20.0°F-6.7°C 14.3°F-9.8°C 78% 2.0 mph SE3.2 kmh SE 6.0 mph9.7 kmh 30.47 in1031.8 mb 0.00 in0.0 mm 0.00 in0.0 mm 0.00 in0.0 mm
04:40 AM 19.9°F-6.7°C 14.5°F-9.7°C 79% 4.0 mph SE6.4 kmh SE 7.0 mph11.3 kmh 30.47 in1031.8 mb 0.00 in0.0 mm 0.00 in0.0 mm 0.00 in0.0 mm
04:45 AM 20.0°F-6.7°C 14.6°F-9.7°C 79% 4.0 mph SE6.4 kmh SE 9.0 mph14.5 kmh 30.47 in1031.8 mb 0.00 in0.0 mm 0.00 in0.0 mm 0.00 in0.0 mm
04:50 AM 20.0°F-6.7°C 14.3°F-9.8°C 78% 2.0 mph SE3.2 kmh SE 7.0 mph11.3 kmh 30.47 in1031.8 mb 0.00 in0.0 mm 0.00 in0.0 mm 0.00 in0.0 mm
04:55 AM 19.9°F-6.7°C 14.5°F-9.7°C 79% 5.0 mph SE8.0 kmh SE 7.0 mph11.3 kmh 30.47 in1031.8 mb 0.00 in0.0 mm 0.00 in0.0 mm 0.00 in0.0 mm
05:00 AM 19.9°F-6.7°C 14.5°F-9.7°C 79% 5.0 mph ESE8.0 kmh ESE 9.0 mph14.5 kmh 30.47 in1031.8 mb 0.00 in0.0 mm 0.00 in0.0 mm 0.00 in0.0 mm
05:05 AM 19.9°F-6.7°C 14.5°F-9.7°C 79% 3.0 mph SE4.8 kmh SE 7.0 mph11.3 kmh 30.47 in1031.8 mb 0.00 in0.0 mm 0.00 in0.0 mm 0.00 in0.0 mm
05:10 AM 19.9°F-6.7°C 14.2°F-9.9°C 78% 4.0 mph SE6.4 kmh SE 7.0 mph11.3 kmh 30.47 in1031.8 mb 0.00 in0.0 mm 0.00 in0.0 mm 0.00 in0.0 mm
05:15 AM 19.9°F-6.7°C 14.2°F-9.9°C 78% 5.0 mph SE8.0 kmh SE 7.0 mph11.3 kmh 30.47 in1031.8 mb 0.00 in0.0 mm 0.00 in0.0 mm 0.00 in0.0 mm
05:20 AM 19.9°F-6.7°C 14.2°F-9.9°C 78% 5.0 mph SE8.0 kmh SE 7.0 mph11.3 kmh 30.47 in1031.8 mb 0.00 in0.0 mm 0.00 in0.0 mm 0.00 in0.0 mm
05:25 AM 19.8°F-6.8°C 14.4°F-9.8°C 79% 5.0 mph SSE8.0 kmh SSE 7.0 mph11.3 kmh 30.47 in1031.8 mb 0.00 in0.0 mm 0.00 in0.0 mm 0.00 in0.0 mm
05:30 AM 19.7°F-6.8°C 14.3°F-9.8°C 79% 5.0 mph SE8.0 kmh SE 7.0 mph11.3 kmh 30.47 in1031.8 mb 0.00 in0.0 mm 0.00 in0.0 mm 0.00 in0.0 mm
05:35 AM 19.7°F-6.8°C 14.3°F-9.8°C 79% 5.0 mph SE8.0 kmh SE 6.0 mph9.7 kmh 30.47 in1031.8 mb 0.00 in0.0 mm 0.00 in0.0 mm 0.00 in0.0 mm
05:40 AM 19.6°F-6.9°C 14.2°F-9.9°C 79% 3.0 mph SSE4.8 kmh SSE 6.0 mph9.7 kmh 30.47 in1031.8 mb 0.00 in0.0 mm 0.00 in0.0 mm 0.00 in0.0 mm
05:45 AM 19.6°F-6.9°C 14.5°F-9.7°C 80% 6.0 mph SE9.7 kmh SE 7.0 mph11.3 kmh 30.47 in1031.8 mb 0.00 in0.0 mm 0.00 in0.0 mm 0.00 in0.0 mm
05:50 AM 19.6°F-6.9°C 14.5°F-9.7°C 80% 4.0 mph SE6.4 kmh SE 7.0 mph11.3 kmh 30.47 in1031.8 mb 0.00 in0.0 mm 0.00 in0.0 mm 0.00 in0.0 mm
05:55 AM 19.5°F-6.9°C 14.4°F-9.8°C 80% 3.0 mph SE4.8 kmh SE 7.0 mph11.3 kmh 30.47 in1031.8 mb 0.00 in0.0 mm 0.00 in0.0 mm 0.00 in0.0 mm
06:00 AM 19.6°F-6.9°C 14.5°F-9.7°C 80% 3.0 mph SSE4.8 kmh SSE 7.0 mph11.3 kmh 30.47 in1031.8 mb 0.00 in0.0 mm 0.00 in0.0 mm 0.00 in0.0 mm
06:05 AM 19.6°F-6.9°C 14.5°F-9.7°C 80% 2.0 mph SE3.2 kmh SE 6.0 mph9.7 kmh 30.47 in1031.8 mb 0.00 in0.0 mm 0.00 in0.0 mm 0.00 in0.0 mm
06:10 AM 19.7°F-6.8°C 14.8°F-9.6°C 81% 3.0 mph SSE4.8 kmh SSE 6.0 mph9.7 kmh 30.47 in1031.8 mb 0.00 in0.0 mm 0.00 in0.0 mm 0.00 in0.0 mm
06:15 AM 19.8°F-6.8°C 14.9°F-9.5°C 81% 2.0 mph SE3.2 kmh SE 6.0 mph9.7 kmh 30.47 in1031.8 mb 0.00 in0.0 mm 0.00 in0.0 mm 0.00 in0.0 mm
06:20 AM 19.8°F-6.8°C 14.9°F-9.5°C 81% 5.0 mph SE8.0 kmh SE 6.0 mph9.7 kmh 30.47 in1031.8 mb 0.00 in0.0 mm 0.00 in0.0 mm 0.00 in0.0 mm
06:25 AM 19.9°F-6.7°C 15.0°F-9.4°C 81% 2.0 mph SSE3.2 kmh SSE 7.0 mph11.3 kmh 30.47 in1031.8 mb 0.00 in0.0 mm 0.00 in0.0 mm 0.00 in0.0 mm
06:30 AM 20.0°F-6.7°C 15.1°F-9.4°C 81% 3.0 mph SE4.8 kmh SE 7.0 mph11.3 kmh 30.47 in1031.8 mb 0.00 in0.0 mm 0.00 in0.0 mm 0.00 in0.0 mm
06:35 AM 20.1°F-6.6°C 14.9°F-9.5°C 80% 5.0 mph SE8.0 kmh SE 6.0 mph9.7 kmh 30.46 in1031.5 mb 0.00 in0.0 mm 0.00 in0.0 mm 0.00 in0.0 mm
06:40 AM 20.1°F-6.6°C 14.9°F-9.5°C 80% 2.0 mph SE3.2 kmh SE 6.0 mph9.7 kmh 30.47 in1031.8 mb 0.00 in0.0 mm 0.00 in0.0 mm 0.00 in0.0 mm
06:45 AM 20.2°F-6.6°C 15.0°F-9.4°C 80% 2.0 mph SE3.2 kmh SE 6.0 mph9.7 kmh 30.47 in1031.8 mb 0.00 in0.0 mm 0.00 in0.0 mm 0.00 in0.0 mm
06:50 AM 20.3°F-6.5°C 15.4°F-9.2°C 81% 4.0 mph SE6.4 kmh SE 6.0 mph9.7 kmh 30.47 in1031.8 mb 0.00 in0.0 mm 0.00 in0.0 mm 0.00 in0.0 mm
06:55 AM 20.4°F-6.4°C 15.5°F-9.2°C 81% 3.0 mph S4.8 kmh S 7.0 mph11.3 kmh 30.47 in1031.8 mb 0.00 in0.0 mm 0.00 in0.0 mm 0.00 in0.0 mm
07:00 AM 20.6°F-6.3°C 15.4°F-9.2°C 80% 5.0 mph S8.0 kmh S 8.0 mph12.9 kmh 30.47 in1031.8 mb 0.00 in0.0 mm 0.00 in0.0 mm 0.00 in0.0 mm
07:05 AM 20.8°F-6.2°C 15.6°F-9.1°C 80% 9.0 mph SE14.5 kmh SE 9.0 mph14.5 kmh 30.46 in1031.5 mb 0.00 in0.0 mm 0.00 in0.0 mm 0.00 in0.0 mm
07:10 AM 21.0°F-6.1°C 15.8°F-9.0°C 80% 6.0 mph SE9.7 kmh SE 11.0 mph17.7 kmh 30.46 in1031.5 mb 0.00 in0.0 mm 0.00 in0.0 mm 0.00 in0.0 mm
07:15 AM 21.1°F-6.1°C 15.6°F-9.1°C 79% 7.0 mph SE11.3 kmh SE 11.0 mph17.7 kmh 30.45 in1031.2 mb 0.00 in0.0 mm 0.00 in0.0 mm 0.00 in0.0 mm
07:20 AM 21.2°F-6.0°C 15.7°F-9.1°C 79% 7.0 mph SE11.3 kmh SE 10.0 mph16.1 kmh 30.45 in1031.2 mb 0.00 in0.0 mm 0.00 in0.0 mm 0.00 in0.0 mm
07:25 AM 21.2°F-6.0°C 15.7°F-9.1°C 79% 9.0 mph SE14.5 kmh SE 11.0 mph17.7 kmh 30.46 in1031.5 mb 0.00 in0.0 mm 0.00 in0.0 mm 0.00 in0.0 mm
07:30 AM 21.3°F-5.9°C 15.5°F-9.2°C 78% 4.0 mph SE6.4 kmh SE 11.0 mph17.7 kmh 30.46 in1031.5 mb 0.00 in0.0 mm 0.00 in0.0 mm 0.00 in0.0 mm
07:35 AM 21.4°F-5.9°C 15.6°F-9.1°C 78% 4.0 mph SE6.4 kmh SE 10.0 mph16.1 kmh 30.46 in1031.5 mb 0.00 in0.0 mm 0.00 in0.0 mm 0.00 in0.0 mm
07:40 AM 21.5°F-5.8°C 15.7°F-9.1°C 78% 8.0 mph S12.9 kmh S 11.0 mph17.7 kmh 30.46 in1031.5 mb 0.00 in0.0 mm 0.00 in0.0 mm 0.00 in0.0 mm
07:45 AM 21.5°F-5.8°C 15.4°F-9.2°C 77% 8.0 mph SE12.9 kmh SE 11.0 mph17.7 kmh 30.46 in1031.5 mb 0.00 in0.0 mm 0.00 in0.0 mm 0.00 in0.0 mm
07:50 AM 21.6°F-5.8°C 15.5°F-9.2°C 77% 4.0 mph SE6.4 kmh SE 10.0 mph16.1 kmh 30.47 in1031.8 mb 0.00 in0.0 mm 0.00 in0.0 mm 0.00 in0.0 mm
07:55 AM 21.5°F-5.8°C 15.4°F-9.2°C 77% 5.0 mph SSE8.0 kmh SSE 10.0 mph16.1 kmh 30.47 in1031.8 mb 0.00 in0.0 mm 0.00 in0.0 mm 0.00 in0.0 mm
08:00 AM 21.5°F-5.8°C 15.4°F-9.2°C 77% 8.0 mph SE12.9 kmh SE 10.0 mph16.1 kmh 30.47 in1031.8 mb 0.00 in0.0 mm 0.00 in0.0 mm 0.00 in0.0 mm
08:05 AM 21.4°F-5.9°C 15.3°F-9.3°C 77% 4.0 mph SE6.4 kmh SE 10.0 mph16.1 kmh 30.47 in1031.8 mb 0.00 in0.0 mm 0.00 in0.0 mm 0.00 in0.0 mm
08:10 AM 21.2°F-6.0°C 15.1°F-9.4°C 77% 4.0 mph SSE6.4 kmh SSE 10.0 mph16.1 kmh 30.47 in1031.8 mb 0.00 in0.0 mm 0.00 in0.0 mm 0.00 in0.0 mm
08:15 AM 21.1°F-6.1°C 15.0°F-9.4°C 77% 9.0 mph SE14.5 kmh SE 10.0 mph16.1 kmh 30.47 in1031.8 mb 0.00 in0.0 mm 0.00 in0.0 mm 0.00 in0.0 mm
08:20 AM 21.0°F-6.1°C 15.2°F-9.3°C 78% 6.0 mph SSE9.7 kmh SSE 10.0 mph16.1 kmh 30.47 in1031.8 mb 0.00 in0.0 mm 0.00 in0.0 mm 0.00 in0.0 mm
08:25 AM 20.8°F-6.2°C 15.0°F-9.4°C 78% 7.0 mph SE11.3 kmh SE 10.0 mph16.1 kmh 30.47 in1031.8 mb 0.00 in0.0 mm 0.00 in0.0 mm 0.00 in0.0 mm
08:30 AM 20.7°F-6.3°C 14.9°F-9.5°C 78% 8.0 mph SE12.9 kmh SE 10.0 mph16.1 kmh 30.47 in1031.8 mb 0.00 in0.0 mm 0.00 in0.0 mm 0.00 in0.0 mm
08:35 AM 20.5°F-6.4°C 14.7°F-9.6°C 78% 8.0 mph SE12.9 kmh SE 10.0 mph16.1 kmh 30.46 in1031.5 mb 0.00 in0.0 mm 0.00 in0.0 mm 0.00 in0.0 mm
08:40 AM 20.5°F-6.4°C 15.0°F-9.4°C 79% 4.0 mph SSE6.4 kmh SSE 10.0 mph16.1 kmh 30.47 in1031.8 mb 0.00 in0.0 mm 0.00 in0.0 mm 0.00 in0.0 mm
08:50 AM 20.2°F-6.6°C 14.7°F-9.6°C 79% 3.0 mph SE4.8 kmh SE 8.0 mph12.9 kmh 30.47 in1031.8 mb 0.00 in0.0 mm 0.00 in0.0 mm 0.00 in0.0 mm
08:55 AM 20.1°F-6.6°C 14.7°F-9.6°C 79% 5.0 mph S8.0 kmh S 8.0 mph12.9 kmh 30.47 in1031.8 mb 0.00 in0.0 mm 0.00 in0.0 mm 0.00 in0.0 mm
09:00 AM 20.0°F-6.7°C 14.6°F-9.7°C 79% 2.0 mph S3.2 kmh S 8.0 mph12.9 kmh 30.47 in1031.8 mb 0.00 in0.0 mm 0.00 in0.0 mm 0.00 in0.0 mm
09:05 AM 19.8°F-6.8°C 14.6°F-9.7°C 80% 3.0 mph S4.8 kmh S 8.0 mph12.9 kmh 30.47 in1031.8 mb 0.00 in0.0 mm 0.00 in0.0 mm 0.00 in0.0 mm
09:10 AM 19.7°F-6.8°C 14.5°F-9.7°C 80% 7.0 mph SE11.3 kmh SE 9.0 mph14.5 kmh 30.48 in1032.2 mb 0.00 in0.0 mm 0.00 in0.0 mm 0.00 in0.0 mm
09:15 AM 19.8°F-6.8°C 14.6°F-9.7°C 80% 8.0 mph SE12.9 kmh SE 9.0 mph14.5 kmh 30.48 in1032.2 mb 0.00 in0.0 mm 0.00 in0.0 mm 0.00 in0.0 mm
09:20 AM 19.8°F-6.8°C 14.6°F-9.7°C 80% 5.0 mph SE8.0 kmh SE 8.0 mph12.9 kmh 30.48 in1032.2 mb 0.00 in0.0 mm 0.00 in0.0 mm 0.00 in0.0 mm
09:25 AM 19.8°F-6.8°C 14.6°F-9.7°C 80% 8.0 mph SE12.9 kmh SE 9.0 mph14.5 kmh 30.48 in1032.2 mb 0.00 in0.0 mm 0.00 in0.0 mm 0.00 in0.0 mm
09:30 AM 19.9°F-6.7°C 14.7°F-9.6°C 80% 5.0 mph SE8.0 kmh SE 9.0 mph14.5 kmh 30.48 in1032.2 mb 0.00 in0.0 mm 0.00 in0.0 mm 0.00 in0.0 mm
09:35 AM 20.0°F-6.7°C 14.8°F-9.6°C 80% 9.0 mph SE14.5 kmh SE 11.0 mph17.7 kmh 30.48 in1032.2 mb 0.00 in0.0 mm 0.00 in0.0 mm 0.00 in0.0 mm
09:40 AM 20.0°F-6.7°C 14.6°F-9.7°C 79% 6.0 mph SE9.7 kmh SE 11.0 mph17.7 kmh 30.48 in1032.2 mb 0.00 in0.0 mm 0.00 in0.0 mm 0.00 in0.0 mm
09:45 AM 20.1°F-6.6°C 14.7°F-9.6°C 79% 2.0 mph SSE3.2 kmh SSE 11.0 mph17.7 kmh 30.48 in1032.2 mb 0.00 in0.0 mm 0.00 in0.0 mm 0.00 in0.0 mm
09:50 AM 20.1°F-6.6°C 14.7°F-9.6°C 79% 4.0 mph SSE6.4 kmh SSE 9.0 mph14.5 kmh 30.49 in1032.5 mb 0.00 in0.0 mm 0.00 in0.0 mm 0.00 in0.0 mm
09:55 AM 20.2°F-6.6°C 14.7°F-9.6°C 79% 6.0 mph SSE9.7 kmh SSE 9.0 mph14.5 kmh 30.49 in1032.5 mb 0.00 in0.0 mm 0.00 in0.0 mm 0.00 in0.0 mm
10:00 AM 20.3°F-6.5°C 14.8°F-9.6°C 79% 7.0 mph SE11.3 kmh SE 10.0 mph16.1 kmh 30.49 in1032.5 mb 0.00 in0.0 mm 0.00 in0.0 mm 0.00 in0.0 mm
10:05 AM 20.5°F-6.4°C 15.0°F-9.4°C 79% 5.0 mph SE8.0 kmh SE 8.0 mph12.9 kmh 30.49 in1032.5 mb 0.00 in0.0 mm 0.00 in0.0 mm 0.00 in0.0 mm
10:10 AM 20.6°F-6.3°C 14.8°F-9.6°C 78% 6.0 mph SE9.7 kmh SE 11.0 mph17.7 kmh 30.49 in1032.5 mb 0.00 in0.0 mm 0.00 in0.0 mm 0.00 in0.0 mm
10:15 AM 20.8°F-6.2°C 15.0°F-9.4°C 78% 5.0 mph SE8.0 kmh SE 14.0 mph22.5 kmh 30.49 in1032.5 mb 0.00 in0.0 mm 0.00 in0.0 mm 0.00 in0.0 mm
10:20 AM 20.9°F-6.2°C 15.1°F-9.4°C 78% 7.0 mph SSE11.3 kmh SSE 7.0 mph11.3 kmh 30.49 in1032.5 mb 0.00 in0.0 mm 0.00 in0.0 mm 0.00 in0.0 mm
10:25 AM 21.3°F-5.9°C 15.2°F-9.3°C 77% 5.0 mph SSE8.0 kmh SSE 9.0 mph14.5 kmh 30.49 in1032.5 mb 0.00 in0.0 mm 0.00 in0.0 mm 0.00 in0.0 mm
10:30 AM 21.6°F-5.8°C 15.5°F-9.2°C 77% 3.0 mph SE4.8 kmh SE 9.0 mph14.5 kmh 30.49 in1032.5 mb 0.00 in0.0 mm 0.00 in0.0 mm 0.00 in0.0 mm
10:35 AM 21.7°F-5.7°C 15.3°F-9.3°C 76% 4.0 mph ESE6.4 kmh ESE 11.0 mph17.7 kmh 30.49 in1032.5 mb 0.00 in0.0 mm 0.00 in0.0 mm 0.00 in0.0 mm
10:40 AM 22.0°F-5.6°C 15.6°F-9.1°C 76% 5.0 mph SE8.0 kmh SE 12.0 mph19.3 kmh 30.49 in1032.5 mb 0.00 in0.0 mm 0.00 in0.0 mm 0.00 in0.0 mm
10:45 AM 22.4°F-5.3°C 16.0°F-8.9°C 76% 7.0 mph ESE11.3 kmh ESE 12.0 mph19.3 kmh 30.49 in1032.5 mb 0.00 in0.0 mm 0.00 in0.0 mm 0.00 in0.0 mm
10:50 AM 22.7°F-5.2°C 16.0°F-8.9°C 75% 8.0 mph SE12.9 kmh SE 11.0 mph17.7 kmh 30.49 in1032.5 mb 0.00 in0.0 mm 0.00 in0.0 mm 0.00 in0.0 mm
10:55 AM 23.0°F-5.0°C 16.0°F-8.9°C 74% 7.0 mph SSE11.3 kmh SSE 11.0 mph17.7 kmh 30.49 in1032.5 mb 0.00 in0.0 mm 0.00 in0.0 mm 0.00 in0.0 mm
11:00 AM 23.3°F-4.8°C 16.3°F-8.7°C 74% 7.0 mph SSE11.3 kmh SSE 12.0 mph19.3 kmh 30.49 in1032.5 mb 0.00 in0.0 mm 0.00 in0.0 mm 0.00 in0.0 mm
11:05 AM 23.7°F-4.6°C 16.6°F-8.6°C 74% 3.0 mph SE4.8 kmh SE 12.0 mph19.3 kmh 30.49 in1032.5 mb 0.00 in0.0 mm 0.00 in0.0 mm 0.00 in0.0 mm
11:10 AM 24.1°F-4.4°C 16.7°F-8.5°C 73% 4.0 mph SSE6.4 kmh SSE 12.0 mph19.3 kmh 30.49 in1032.5 mb 0.00 in0.0 mm 0.00 in0.0 mm 0.00 in0.0 mm
11:15 AM 24.2°F-4.3°C 16.8°F-8.4°C 73% 8.0 mph S12.9 kmh S 16.0 mph25.7 kmh 30.49 in1032.5 mb 0.00 in0.0 mm 0.00 in0.0 mm 0.00 in0.0 mm
11:20 AM 24.6°F-4.1°C 17.2°F-8.2°C 73% 5.0 mph SE8.0 kmh SE 13.0 mph20.9 kmh 30.49 in1032.5 mb 0.00 in0.0 mm 0.00 in0.0 mm 0.00 in0.0 mm
11:25 AM 25.0°F-3.9°C 17.3°F-8.2°C 72% 6.0 mph SSE9.7 kmh SSE 13.0 mph20.9 kmh 30.49 in1032.5 mb 0.00 in0.0 mm 0.00 in0.0 mm 0.00 in0.0 mm
11:30 AM 25.3°F-3.7°C 17.2°F-8.2°C 71% 7.0 mph SE11.3 kmh SE 14.0 mph22.5 kmh 30.49 in1032.5 mb 0.00 in0.0 mm 0.00 in0.0 mm 0.00 in0.0 mm
11:35 AM 25.4°F-3.7°C 17.3°F-8.2°C 71% 4.0 mph SE6.4 kmh SE 14.0 mph22.5 kmh 30.49 in1032.5 mb 0.00 in0.0 mm 0.00 in0.0 mm 0.00 in0.0 mm
11:40 AM 25.8°F-3.4°C 17.4°F-8.1°C 70% 9.0 mph SE14.5 kmh SE 14.0 mph22.5 kmh 30.49 in1032.5 mb 0.00 in0.0 mm 0.00 in0.0 mm 0.00 in0.0 mm
11:45 AM 26.0°F-3.3°C 17.6°F-8.0°C 70% 7.0 mph S11.3 kmh S 14.0 mph22.5 kmh 30.49 in1032.5 mb 0.00 in0.0 mm 0.00 in0.0 mm 0.00 in0.0 mm
11:50 AM 25.9°F-3.4°C 17.5°F-8.1°C 70% 7.0 mph S11.3 kmh S 12.0 mph19.3 kmh 30.50 in1032.8 mb 0.00 in0.0 mm 0.00 in0.0 mm 0.00 in0.0 mm
11:55 AM 26.2°F-3.2°C 17.8°F-7.9°C 70% 11.0 mph SE17.7 kmh SE 12.0 mph19.3 kmh 30.49 in1032.5 mb 0.00 in0.0 mm 0.00 in0.0 mm 0.00 in0.0 mm
12:00 PM 26.3°F-3.2°C 17.5°F-8.1°C 69% 6.0 mph SE9.7 kmh SE 12.0 mph19.3 kmh 30.50 in1032.8 mb 0.00 in0.0 mm 0.00 in0.0 mm 0.00 in0.0 mm
12:05 PM 26.3°F-3.2°C 17.5°F-8.1°C 69% 8.0 mph SE12.9 kmh SE 12.0 mph19.3 kmh 30.49 in1032.5 mb 0.00 in0.0 mm 0.00 in0.0 mm 0.00 in0.0 mm
12:10 PM 26.4°F-3.1°C 17.3°F-8.2°C 68% 8.0 mph SE12.9 kmh SE 13.0 mph20.9 kmh 30.50 in1032.8 mb 0.00 in0.0 mm 0.00 in0.0 mm 0.00 in0.0 mm
12:15 PM 26.6°F-3.0°C 17.8°F-7.9°C 69% 10.0 mph SE16.1 kmh SE 13.0 mph20.9 kmh 30.50 in1032.8 mb 0.00 in0.0 mm 0.00 in0.0 mm 0.00 in0.0 mm
12:20 PM 27.0°F-2.8°C 17.9°F-7.8°C 68% 7.0 mph SE11.3 kmh SE 11.0 mph17.7 kmh 30.50 in1032.8 mb 0.00 in0.0 mm 0.00 in0.0 mm 0.00 in0.0 mm
12:25 PM 27.1°F-2.7°C 17.6°F-8.0°C 67% 5.0 mph SE8.0 kmh SE 14.0 mph22.5 kmh 30.50 in1032.8 mb 0.00 in0.0 mm 0.00 in0.0 mm 0.00 in0.0 mm
12:30 PM 27.2°F-2.7°C 17.7°F-7.9°C 67% 6.0 mph ESE9.7 kmh ESE 15.0 mph24.1 kmh 30.50 in1032.8 mb 0.00 in0.0 mm 0.00 in0.0 mm 0.00 in0.0 mm
12:35 PM 27.7°F-2.4°C 18.2°F-7.7°C 67% 11.0 mph SSE17.7 kmh SSE 11.0 mph17.7 kmh 30.49 in1032.5 mb 0.00 in0.0 mm 0.00 in0.0 mm 0.00 in0.0 mm
12:40 PM 27.7°F-2.4°C 17.8°F-7.9°C 66% 7.0 mph S11.3 kmh S 11.0 mph17.7 kmh 30.49 in1032.5 mb 0.00 in0.0 mm 0.00 in0.0 mm 0.00 in0.0 mm
12:45 PM 27.9°F-2.3°C 18.4°F-7.6°C 67% 4.0 mph SE6.4 kmh SE 12.0 mph19.3 kmh 30.49 in1032.5 mb 0.00 in0.0 mm 0.00 in0.0 mm 0.00 in0.0 mm
12:50 PM 28.1°F-2.2°C 18.2°F-7.7°C 66% 12.0 mph S19.3 kmh S 12.0 mph19.3 kmh 30.48 in1032.2 mb 0.00 in0.0 mm 0.00 in0.0 mm 0.00 in0.0 mm
12:55 PM 28.4°F-2.0°C 18.5°F-7.5°C 66% 11.0 mph SSE17.7 kmh SSE 12.0 mph19.3 kmh 30.48 in1032.2 mb 0.00 in0.0 mm 0.00 in0.0 mm 0.00 in0.0 mm
01:00 PM 28.5°F-1.9°C 18.3°F-7.6°C 65% 8.0 mph E12.9 kmh E 14.0 mph22.5 kmh 30.48 in1032.2 mb 0.00 in0.0 mm 0.00 in0.0 mm 0.00 in0.0 mm
01:05 PM 28.6°F-1.9°C 18.3°F-7.6°C 65% 7.0 mph SE11.3 kmh SE 12.0 mph19.3 kmh 30.48 in1032.2 mb 0.00 in0.0 mm 0.00 in0.0 mm 0.00 in0.0 mm
01:10 PM 28.6°F-1.9°C 18.3°F-7.6°C 65% 5.0 mph SE8.0 kmh SE 15.0 mph24.1 kmh 30.47 in1031.8 mb 0.00 in0.0 mm 0.00 in0.0 mm 0.00 in0.0 mm
01:15 PM 28.8°F-1.8°C 18.5°F-7.5°C 65% 4.0 mph SE6.4 kmh SE 15.0 mph24.1 kmh 30.47 in1031.8 mb 0.00 in0.0 mm 0.00 in0.0 mm 0.00 in0.0 mm
01:20 PM 29.1°F-1.6°C 18.8°F-7.3°C 65% 5.0 mph SE8.0 kmh SE 12.0 mph19.3 kmh 30.47 in1031.8 mb 0.00 in0.0 mm 0.00 in0.0 mm 0.00 in0.0 mm
01:25 PM 29.3°F-1.5°C 18.7°F-7.4°C 64% 7.0 mph SE11.3 kmh SE 12.0 mph19.3 kmh 30.46 in1031.5 mb 0.00 in0.0 mm 0.00 in0.0 mm 0.00 in0.0 mm
01:30 PM 29.4°F-1.4°C 18.7°F-7.4°C 64% 5.0 mph SSW8.0 kmh SSW 12.0 mph19.3 kmh 30.46 in1031.5 mb 0.00 in0.0 mm 0.00 in0.0 mm 0.00 in0.0 mm
01:35 PM 29.6°F-1.3°C 18.9°F-7.3°C 64% 3.0 mph SE4.8 kmh SE 10.0 mph16.1 kmh 30.46 in1031.5 mb 0.00 in0.0 mm 0.00 in0.0 mm 0.00 in0.0 mm
01:40 PM 30.0°F-1.1°C 19.3°F-7.1°C 64% 7.0 mph SE11.3 kmh SE 12.0 mph19.3 kmh 30.45 in1031.2 mb 0.00 in0.0 mm 0.00 in0.0 mm 0.00 in0.0 mm
01:45 PM 30.1°F-1.1°C 19.0°F-7.2°C 63% 6.0 mph SSE9.7 kmh SSE 12.0 mph19.3 kmh 30.46 in1031.5 mb 0.00 in0.0 mm 0.00 in0.0 mm 0.00 in0.0 mm
01:50 PM 30.2°F-1.0°C 19.1°F-7.2°C 63% 5.0 mph S8.0 kmh S 9.0 mph14.5 kmh 30.46 in1031.5 mb 0.00 in0.0 mm 0.00 in0.0 mm 0.00 in0.0 mm
01:55 PM 30.4°F-0.9°C 19.3°F-7.1°C 63% 6.0 mph SSE9.7 kmh SSE 9.0 mph14.5 kmh 30.45 in1031.2 mb 0.00 in0.0 mm 0.00 in0.0 mm 0.00 in0.0 mm
02:00 PM 30.7°F-0.7°C 19.2°F-7.1°C 62% 5.0 mph SE8.0 kmh SE 12.0 mph19.3 kmh 30.45 in1031.2 mb 0.00 in0.0 mm 0.00 in0.0 mm 0.00 in0.0 mm
02:05 PM 30.8°F-0.7°C 19.0°F-7.2°C 61% 6.0 mph ESE9.7 kmh ESE 10.0 mph16.1 kmh 30.45 in1031.2 mb 0.00 in0.0 mm 0.00 in0.0 mm 0.00 in0.0 mm
02:10 PM 30.9°F-0.6°C 19.4°F-7.0°C 62% 6.0 mph ESE9.7 kmh ESE 10.0 mph16.1 kmh 30.44 in1030.8 mb 0.00 in0.0 mm 0.00 in0.0 mm 0.00 in0.0 mm
02:15 PM 31.1°F-0.5°C 19.2°F-7.1°C 61% 6.0 mph SSE9.7 kmh SSE 10.0 mph16.1 kmh 30.45 in1031.2 mb 0.00 in0.0 mm 0.00 in0.0 mm 0.00 in0.0 mm
02:20 PM 31.2°F-0.4°C 19.3°F-7.1°C 61% 4.0 mph SE6.4 kmh SE 8.0 mph12.9 kmh 30.45 in1031.2 mb 0.00 in0.0 mm 0.00 in0.0 mm 0.00 in0.0 mm
02:25 PM 31.3°F-0.4°C 19.4°F-7.0°C 61% 4.0 mph E6.4 kmh E 9.0 mph14.5 kmh 30.45 in1031.2 mb 0.00 in0.0 mm 0.00 in0.0 mm 0.00 in0.0 mm
02:30 PM 31.3°F-0.4°C 19.0°F-7.2°C 60% 3.0 mph SSE4.8 kmh SSE 11.0 mph17.7 kmh 30.44 in1030.8 mb 0.00 in0.0 mm 0.00 in0.0 mm 0.00 in0.0 mm
02:35 PM 31.4°F-0.3°C 19.5°F-6.9°C 61% 1.0 mph SE1.6 kmh SE 8.0 mph12.9 kmh 30.44 in1030.8 mb 0.00 in0.0 mm 0.00 in0.0 mm 0.00 in0.0 mm
02:40 PM 31.5°F-0.3°C 19.6°F-6.9°C 61% 8.0 mph S12.9 kmh S 10.0 mph16.1 kmh 30.44 in1030.8 mb 0.00 in0.0 mm 0.00 in0.0 mm 0.00 in0.0 mm
02:45 PM 31.7°F-0.2°C 19.8°F-6.8°C 61% 5.0 mph SSE8.0 kmh SSE 10.0 mph16.1 kmh 30.44 in1030.8 mb 0.00 in0.0 mm 0.00 in0.0 mm 0.00 in0.0 mm
02:50 PM 31.6°F-0.2°C 19.3°F-7.1°C 60% 6.0 mph SE9.7 kmh SE 8.0 mph12.9 kmh 30.44 in1030.8 mb 0.00 in0.0 mm 0.00 in0.0 mm 0.00 in0.0 mm
02:55 PM 31.6°F-0.2°C 19.7°F-6.8°C 61% 4.0 mph SSE6.4 kmh SSE 8.0 mph12.9 kmh 30.44 in1030.8 mb 0.00 in0.0 mm 0.00 in0.0 mm 0.00 in0.0 mm
03:00 PM 31.8°F-0.1°C 19.1°F-7.2°C 59% 4.0 mph SE6.4 kmh SE 8.0 mph12.9 kmh 30.44 in1030.8 mb 0.00 in0.0 mm 0.00 in0.0 mm 0.00 in0.0 mm
03:05 PM 31.7°F-0.2°C 19.4°F-7.0°C 60% 1.0 mph SE1.6 kmh SE 8.0 mph12.9 kmh 30.43 in1030.5 mb 0.00 in0.0 mm 0.00 in0.0 mm 0.00 in0.0 mm
03:10 PM 31.9°F-0.1°C 19.6°F-6.9°C 60% 4.0 mph SE6.4 kmh SE 9.0 mph14.5 kmh 30.43 in1030.5 mb 0.00 in0.0 mm 0.00 in0.0 mm 0.00 in0.0 mm
03:15 PM 32.1°F0.1°C 19.4°F-7.0°C 59% 5.0 mph SE8.0 kmh SE 9.0 mph14.5 kmh 30.43 in1030.5 mb 0.00 in0.0 mm 0.00 in0.0 mm 0.00 in0.0 mm
03:20 PM 32.0°F0.0°C 19.3°F-7.1°C 59% 2.0 mph S3.2 kmh S 7.0 mph11.3 kmh 30.43 in1030.5 mb 0.00 in0.0 mm 0.00 in0.0 mm 0.00 in0.0 mm
03:25 PM 32.4°F0.2°C 20.1°F-6.6°C 60% 3.0 mph SE4.8 kmh SE 7.0 mph11.3 kmh 30.43 in1030.5 mb 0.00 in0.0 mm 0.00 in0.0 mm 0.00 in0.0 mm
03:30 PM 32.6°F0.3°C 19.9°F-6.7°C 59% 1.0 mph SSE1.6 kmh SSE 9.0 mph14.5 kmh 30.43 in1030.5 mb 0.00 in0.0 mm 0.00 in0.0 mm 0.00 in0.0 mm
03:35 PM 32.8°F0.4°C 20.1°F-6.6°C 59% 1.0 mph SE1.6 kmh SE 9.0 mph14.5 kmh 30.42 in1030.1 mb 0.00 in0.0 mm 0.00 in0.0 mm 0.00 in0.0 mm
03:40 PM 33.4°F0.8°C 20.2°F-6.6°C 58% 8.0 mph SSE12.9 kmh SSE 10.0 mph16.1 kmh 30.42 in1030.1 mb 0.00 in0.0 mm 0.00 in0.0 mm 0.00 in0.0 mm
03:45 PM 33.9°F1.1°C 20.7°F-6.3°C 58% 6.0 mph E9.7 kmh E 10.0 mph16.1 kmh 30.42 in1030.1 mb 0.00 in0.0 mm 0.00 in0.0 mm 0.00 in0.0 mm
03:50 PM 33.9°F1.1°C 20.7°F-6.3°C 58% 7.0 mph SSE11.3 kmh SSE 11.0 mph17.7 kmh 30.41 in1029.8 mb 0.00 in0.0 mm 0.00 in0.0 mm 0.00 in0.0 mm
03:55 PM 33.6°F0.9°C 20.4°F-6.4°C 58% 5.0 mph SE8.0 kmh SE 11.0 mph17.7 kmh 30.42 in1030.1 mb 0.00 in0.0 mm 0.00 in0.0 mm 0.00 in0.0 mm
04:00 PM 33.6°F0.9°C 20.0°F-6.7°C 57% 9.0 mph SE14.5 kmh SE 11.0 mph17.7 kmh 30.42 in1030.1 mb 0.00 in0.0 mm 0.00 in0.0 mm 0.00 in0.0 mm
04:05 PM 33.7°F0.9°C 19.7°F-6.8°C 56% 8.0 mph SSE12.9 kmh SSE 11.0 mph17.7 kmh 30.42 in1030.1 mb 0.00 in0.0 mm 0.00 in0.0 mm 0.00 in0.0 mm
04:10 PM 33.5°F0.8°C 19.9°F-6.7°C 57% 6.0 mph SE9.7 kmh SE 11.0 mph17.7 kmh 30.42 in1030.1 mb 0.00 in0.0 mm 0.00 in0.0 mm 0.00 in0.0 mm
04:15 PM 33.9°F1.1°C 19.9°F-6.7°C 56% 7.0 mph SSE11.3 kmh SSE 11.0 mph17.7 kmh 30.42 in1030.1 mb 0.00 in0.0 mm 0.00 in0.0 mm 0.00 in0.0 mm
04:20 PM 33.4°F0.8°C 19.8°F-6.8°C 57% 3.0 mph SE4.8 kmh SE 8.0 mph12.9 kmh 30.42 in1030.1 mb 0.00 in0.0 mm 0.00 in0.0 mm 0.00 in0.0 mm
04:30 PM 33.3°F0.7°C 19.7°F-6.8°C 57% 7.0 mph SSE11.3 kmh SSE 8.0 mph12.9 kmh 30.42 in1030.1 mb 0.00 in0.0 mm 0.00 in0.0 mm 0.00 in0.0 mm
04:35 PM 33.4°F0.8°C 19.4°F-7.0°C 56% 10.0 mph SSE16.1 kmh SSE 10.0 mph16.1 kmh 30.41 in1029.8 mb 0.00 in0.0 mm 0.00 in0.0 mm 0.00 in0.0 mm
04:40 PM 33.3°F0.7°C 19.7°F-6.8°C 57% 8.0 mph SE12.9 kmh SE 12.0 mph19.3 kmh 30.42 in1030.1 mb 0.00 in0.0 mm 0.00 in0.0 mm 0.00 in0.0 mm
04:45 PM 33.1°F0.6°C 19.5°F-6.9°C 57% 6.0 mph SE9.7 kmh SE 12.0 mph19.3 kmh 30.41 in1029.8 mb 0.00 in0.0 mm 0.00 in0.0 mm 0.00 in0.0 mm
04:50 PM 32.9°F0.5°C 19.8°F-6.8°C 58% 4.0 mph SE6.4 kmh SE 9.0 mph14.5 kmh 30.42 in1030.1 mb 0.00 in0.0 mm 0.00 in0.0 mm 0.00 in0.0 mm
04:55 PM 32.8°F0.4°C 19.3°F-7.1°C 57% 8.0 mph SE12.9 kmh SE 12.0 mph19.3 kmh 30.41 in1029.8 mb 0.00 in0.0 mm 0.00 in0.0 mm 0.00 in0.0 mm
05:00 PM 32.7°F0.4°C 19.6°F-6.9°C 58% 4.0 mph SE6.4 kmh SE 12.0 mph19.3 kmh 30.41 in1029.8 mb 0.00 in0.0 mm 0.00 in0.0 mm 0.00 in0.0 mm
05:05 PM 32.8°F0.4°C 19.7°F-6.8°C 58% 4.0 mph SE6.4 kmh SE 7.0 mph11.3 kmh 30.41 in1029.8 mb 0.00 in0.0 mm 0.00 in0.0 mm 0.00 in0.0 mm
05:10 PM 32.7°F0.4°C 19.6°F-6.9°C 58% 6.0 mph SSE9.7 kmh SSE 9.0 mph14.5 kmh 30.42 in1030.1 mb 0.00 in0.0 mm 0.00 in0.0 mm 0.00 in0.0 mm
05:15 PM 32.7°F0.4°C 19.6°F-6.9°C 58% 4.0 mph SE6.4 kmh SE 9.0 mph14.5 kmh 30.42 in1030.1 mb 0.00 in0.0 mm 0.00 in0.0 mm 0.00 in0.0 mm
05:20 PM 32.7°F0.4°C 19.6°F-6.9°C 58% 4.0 mph SE6.4 kmh SE 9.0 mph14.5 kmh 30.42 in1030.1 mb 0.00 in0.0 mm 0.00 in0.0 mm 0.00 in0.0 mm
05:25 PM 32.7°F0.4°C 20.0°F-6.7°C 59% 7.0 mph SE11.3 kmh SE 9.0 mph14.5 kmh 30.42 in1030.1 mb 0.00 in0.0 mm 0.00 in0.0 mm 0.00 in0.0 mm
05:30 PM 32.7°F0.4°C 20.0°F-6.7°C 59% 1.0 mph SE1.6 kmh SE 9.0 mph14.5 kmh 30.42 in1030.1 mb 0.00 in0.0 mm 0.00 in0.0 mm 0.00 in0.0 mm
05:35 PM 32.6°F0.3°C 19.9°F-6.7°C 59% 1.0 mph S1.6 kmh S 7.0 mph11.3 kmh 30.42 in1030.1 mb 0.00 in0.0 mm 0.00 in0.0 mm 0.00 in0.0 mm
05:40 PM 32.5°F0.3°C 19.8°F-6.8°C 59% 4.0 mph SE6.4 kmh SE 8.0 mph12.9 kmh 30.42 in1030.1 mb 0.00 in0.0 mm 0.00 in0.0 mm 0.00 in0.0 mm
05:45 PM 32.4°F0.2°C 19.7°F-6.8°C 59% 3.0 mph SE4.8 kmh SE 9.0 mph14.5 kmh 30.41 in1029.8 mb 0.00 in0.0 mm 0.00 in0.0 mm 0.00 in0.0 mm
05:55 PM 32.3°F0.2°C 20.0°F-6.7°C 60% 2.0 mph SE3.2 kmh SE 9.0 mph14.5 kmh 30.41 in1029.8 mb 0.00 in0.0 mm 0.00 in0.0 mm 0.00 in0.0 mm
06:00 PM 32.3°F0.2°C 20.0°F-6.7°C 60% 4.0 mph ESE6.4 kmh ESE 10.0 mph16.1 kmh 30.40 in1029.5 mb 0.00 in0.0 mm 0.00 in0.0 mm 0.00 in0.0 mm
06:10 PM 32.2°F0.1°C 19.5°F-6.9°C 59% 4.0 mph SE6.4 kmh SE 10.0 mph16.1 kmh 30.41 in1029.8 mb 0.00 in0.0 mm 0.00 in0.0 mm 0.00 in0.0 mm
06:15 PM 32.1°F0.1°C 19.8°F-6.8°C 60% 4.0 mph SE6.4 kmh SE 10.0 mph16.1 kmh 30.40 in1029.5 mb 0.00 in0.0 mm 0.00 in0.0 mm 0.00 in0.0 mm
06:20 PM 32.0°F0.0°C 19.7°F-6.8°C 60% 1.0 mph SE1.6 kmh SE 5.0 mph8.0 kmh 30.40 in1029.5 mb 0.00 in0.0 mm 0.00 in0.0 mm 0.00 in0.0 mm
06:30 PM 31.9°F-0.1°C 19.6°F-6.9°C 60% 1.0 mph SE1.6 kmh SE 7.0 mph11.3 kmh 30.40 in1029.5 mb 0.00 in0.0 mm 0.00 in0.0 mm 0.00 in0.0 mm
06:35 PM 31.9°F-0.1°C 19.6°F-6.9°C 60% 2.0 mph SE3.2 kmh SE 6.0 mph9.7 kmh 30.40 in1029.5 mb 0.00 in0.0 mm 0.00 in0.0 mm 0.00 in0.0 mm
06:40 PM 31.9°F-0.1°C 20.0°F-6.7°C 61% 4.0 mph S6.4 kmh S 6.0 mph9.7 kmh 30.40 in1029.5 mb 0.00 in0.0 mm 0.00 in0.0 mm 0.00 in0.0 mm
06:45 PM 31.8°F-0.1°C 19.9°F-6.7°C 61% 2.0 mph SSE3.2 kmh SSE 6.0 mph9.7 kmh 30.41 in1029.8 mb 0.00 in0.0 mm 0.00 in0.0 mm 0.00 in0.0 mm
06:50 PM 31.8°F-0.1°C 19.5°F-6.9°C 60% 3.0 mph SE4.8 kmh SE 6.0 mph9.7 kmh 30.41 in1029.8 mb 0.00 in0.0 mm 0.00 in0.0 mm 0.00 in0.0 mm
06:55 PM 31.6°F-0.2°C 19.7°F-6.8°C 61% 1.0 mph SE1.6 kmh SE 7.0 mph11.3 kmh 30.41 in1029.8 mb 0.00 in0.0 mm 0.00 in0.0 mm 0.00 in0.0 mm
07:05 PM 31.5°F-0.3°C 19.6°F-6.9°C 61% 4.0 mph S6.4 kmh S 8.0 mph12.9 kmh 30.41 in1029.8 mb 0.00 in0.0 mm 0.00 in0.0 mm 0.00 in0.0 mm
07:10 PM 31.5°F-0.3°C 19.6°F-6.9°C 61% 1.0 mph SE1.6 kmh SE 8.0 mph12.9 kmh 30.41 in1029.8 mb 0.00 in0.0 mm 0.00 in0.0 mm 0.00 in0.0 mm
07:15 PM 31.4°F-0.3°C 19.5°F-6.9°C 61% 4.0 mph SE6.4 kmh SE 8.0 mph12.9 kmh 30.41 in1029.8 mb 0.00 in0.0 mm 0.00 in0.0 mm 0.00 in0.0 mm
07:20 PM 31.3°F-0.4°C 19.8°F-6.8°C 62% 3.0 mph SE4.8 kmh SE 6.0 mph9.7 kmh 30.42 in1030.1 mb 0.00 in0.0 mm 0.00 in0.0 mm 0.00 in0.0 mm
07:25 PM 31.2°F-0.4°C 19.7°F-6.8°C 62% 3.0 mph SE4.8 kmh SE 6.0 mph9.7 kmh 30.41 in1029.8 mb 0.00 in0.0 mm 0.00 in0.0 mm 0.00 in0.0 mm
07:30 PM 31.2°F-0.4°C 19.7°F-6.8°C 62% 3.0 mph SSE4.8 kmh SSE 7.0 mph11.3 kmh 30.41 in1029.8 mb 0.00 in0.0 mm 0.00 in0.0 mm 0.00 in0.0 mm
07:35 PM 31.1°F-0.5°C 19.6°F-6.9°C 62% 2.0 mph SE3.2 kmh SE 5.0 mph8.0 kmh 30.41 in1029.8 mb 0.00 in0.0 mm 0.00 in0.0 mm 0.00 in0.0 mm
07:40 PM 31.1°F-0.5°C 19.6°F-6.9°C 62% 4.0 mph SE6.4 kmh SE 7.0 mph11.3 kmh 30.41 in1029.8 mb 0.00 in0.0 mm 0.00 in0.0 mm 0.00 in0.0 mm
07:45 PM 30.9°F-0.6°C 19.4°F-7.0°C 62% 2.0 mph SE3.2 kmh SE 7.0 mph11.3 kmh 30.41 in1029.8 mb 0.00 in0.0 mm 0.00 in0.0 mm 0.00 in0.0 mm
07:50 PM 30.8°F-0.7°C 19.7°F-6.8°C 63% 1.0 mph SSE1.6 kmh SSE 5.0 mph8.0 kmh 30.41 in1029.8 mb 0.00 in0.0 mm 0.00 in0.0 mm 0.00 in0.0 mm
07:55 PM 30.6°F-0.8°C 19.5°F-6.9°C 63% 1.0 mph SE1.6 kmh SE 5.0 mph8.0 kmh 30.41 in1029.8 mb 0.00 in0.0 mm 0.00 in0.0 mm 0.00 in0.0 mm
08:00 PM 30.4°F-0.9°C 19.3°F-7.1°C 63% 2.0 mph SSE3.2 kmh SSE 5.0 mph8.0 kmh 30.42 in1030.1 mb 0.00 in0.0 mm 0.00 in0.0 mm 0.00 in0.0 mm
08:05 PM 30.2°F-1.0°C 19.5°F-6.9°C 64% Calm Calm 2.0 mph3.2 kmh 30.42 in1030.1 mb 0.00 in0.0 mm 0.00 in0.0 mm 0.00 in0.0 mm
08:10 PM 30.0°F-1.1°C 19.3°F-7.1°C 64% 2.0 mph S3.2 kmh S 4.0 mph6.4 kmh 30.42 in1030.1 mb 0.00 in0.0 mm 0.00 in0.0 mm 0.00 in0.0 mm
08:15 PM 29.8°F-1.2°C 19.5°F-6.9°C 65% Calm Calm 4.0 mph6.4 kmh 30.42 in1030.1 mb 0.00 in0.0 mm 0.00 in0.0 mm 0.00 in0.0 mm
08:20 PM 29.5°F-1.4°C 19.2°F-7.1°C 65% Calm Calm 2.0 mph3.2 kmh 30.42 in1030.1 mb 0.00 in0.0 mm 0.00 in0.0 mm 0.00 in0.0 mm
08:25 PM 29.3°F-1.5°C 19.4°F-7.0°C 66% Calm Calm 2.0 mph3.2 kmh 30.42 in1030.1 mb 0.00 in0.0 mm 0.00 in0.0 mm 0.00 in0.0 mm
08:30 PM 29.0°F-1.7°C 19.1°F-7.2°C 66% Calm Calm 2.0 mph3.2 kmh 30.42 in1030.1 mb 0.00 in0.0 mm 0.00 in0.0 mm 0.00 in0.0 mm
08:35 PM 28.5°F-1.9°C 19.3°F-7.1°C 68% Calm Calm 2.0 mph3.2 kmh 30.42 in1030.1 mb 0.00 in0.0 mm 0.00 in0.0 mm 0.00 in0.0 mm
08:40 PM 28.0°F-2.2°C 19.5°F-6.9°C 70% Calm Calm 2.0 mph3.2 kmh 30.42 in1030.1 mb 0.00 in0.0 mm 0.00 in0.0 mm 0.00 in0.0 mm
08:45 PM 27.6°F-2.4°C 19.4°F-7.0°C 71% Calm Calm 2.0 mph3.2 kmh 30.42 in1030.1 mb 0.00 in0.0 mm 0.00 in0.0 mm 0.00 in0.0 mm
08:50 PM 27.3°F-2.6°C 19.5°F-6.9°C 72% Calm Calm 2.0 mph3.2 kmh 30.42 in1030.1 mb 0.00 in0.0 mm 0.00 in0.0 mm 0.00 in0.0 mm
08:55 PM 27.1°F-2.7°C 19.6°F-6.9°C 73% Calm Calm 2.0 mph3.2 kmh 30.42 in1030.1 mb 0.00 in0.0 mm 0.00 in0.0 mm 0.00 in0.0 mm
09:00 PM 27.2°F-2.7°C 19.4°F-7.0°C 72% Calm Calm 3.0 mph4.8 kmh 30.42 in1030.1 mb 0.00 in0.0 mm 0.00 in0.0 mm 0.00 in0.0 mm
09:05 PM 27.5°F-2.5°C 19.7°F-6.8°C 72% Calm Calm 2.0 mph3.2 kmh 30.42 in1030.1 mb 0.00 in0.0 mm 0.00 in0.0 mm 0.00 in0.0 mm
09:10 PM 27.5°F-2.5°C 19.4°F-7.0°C 71% 1.0 mph SSE1.6 kmh SSE 2.0 mph3.2 kmh 30.42 in1030.1 mb 0.00 in0.0 mm 0.00 in0.0 mm 0.00 in0.0 mm
09:15 PM 27.1°F-2.7°C 19.6°F-6.9°C 73% Calm Calm 2.0 mph3.2 kmh 30.42 in1030.1 mb 0.00 in0.0 mm 0.00 in0.0 mm 0.00 in0.0 mm
09:20 PM 26.9°F-2.8°C 19.4°F-7.0°C 73% Calm Calm 2.0 mph3.2 kmh 30.42 in1030.1 mb 0.00 in0.0 mm 0.00 in0.0 mm 0.00 in0.0 mm
09:25 PM 26.8°F-2.9°C 19.6°F-6.9°C 74% 1.0 mph SSE1.6 kmh SSE 2.0 mph3.2 kmh 30.42 in1030.1 mb 0.00 in0.0 mm 0.00 in0.0 mm 0.00 in0.0 mm
09:30 PM 26.9°F-2.8°C 19.4°F-7.0°C 73% 3.0 mph SSE4.8 kmh SSE 3.0 mph4.8 kmh 30.42 in1030.1 mb 0.00 in0.0 mm 0.00 in0.0 mm 0.00 in0.0 mm
09:35 PM 27.0°F-2.8°C 19.2°F-7.1°C 72% 2.0 mph SSE3.2 kmh SSE 3.0 mph4.8 kmh 30.42 in1030.1 mb 0.00 in0.0 mm 0.00 in0.0 mm 0.00 in0.0 mm
09:40 PM 27.1°F-2.7°C 19.3°F-7.1°C 72% 2.0 mph SSE3.2 kmh SSE 4.0 mph6.4 kmh 30.42 in1030.1 mb 0.00 in0.0 mm 0.00 in0.0 mm 0.00 in0.0 mm
09:45 PM 27.1°F-2.7°C 19.3°F-7.1°C 72% 1.0 mph SSE1.6 kmh SSE 4.0 mph6.4 kmh 30.42 in1030.1 mb 0.00 in0.0 mm 0.00 in0.0 mm 0.00 in0.0 mm
09:50 PM 27.0°F-2.8°C 19.2°F-7.1°C 72% 4.0 mph SE6.4 kmh SE 4.0 mph6.4 kmh 30.42 in1030.1 mb 0.00 in0.0 mm 0.00 in0.0 mm 0.00 in0.0 mm
09:55 PM 26.9°F-2.8°C 19.1°F-7.2°C 72% 1.0 mph SE1.6 kmh SE 4.0 mph6.4 kmh 30.42 in1030.1 mb 0.00 in0.0 mm 0.00 in0.0 mm 0.00 in0.0 mm
10:00 PM 26.7°F-2.9°C 18.9°F-7.3°C 72% 2.0 mph SE3.2 kmh SE 4.0 mph6.4 kmh 30.42 in1030.1 mb 0.00 in0.0 mm 0.00 in0.0 mm 0.00 in0.0 mm
10:05 PM 26.6°F-3.0°C 19.1°F-7.2°C 73% 1.0 mph SE1.6 kmh SE 4.0 mph6.4 kmh 30.42 in1030.1 mb 0.00 in0.0 mm 0.00 in0.0 mm 0.00 in0.0 mm
10:10 PM 26.4°F-3.1°C 18.9°F-7.3°C 73% 1.0 mph SE1.6 kmh SE 5.0 mph8.0 kmh 30.42 in1030.1 mb 0.00 in0.0 mm 0.00 in0.0 mm 0.00 in0.0 mm
10:15 PM 26.2°F-3.2°C 18.7°F-7.4°C 73% 2.0 mph ESE3.2 kmh ESE 5.0 mph8.0 kmh 30.42 in1030.1 mb 0.00 in0.0 mm 0.00 in0.0 mm 0.00 in0.0 mm
10:20 PM 26.1°F-3.3°C 19.0°F-7.2°C 74% 1.0 mph SE1.6 kmh SE 3.0 mph4.8 kmh 30.41 in1029.8 mb 0.00 in0.0 mm 0.00 in0.0 mm 0.00 in0.0 mm
10:25 PM 26.0°F-3.3°C 18.9°F-7.3°C 74% 4.0 mph SE6.4 kmh SE 5.0 mph8.0 kmh 30.42 in1030.1 mb 0.00 in0.0 mm 0.00 in0.0 mm 0.00 in0.0 mm
10:30 PM 25.9°F-3.4°C 18.5°F-7.5°C 73% 1.0 mph ESE1.6 kmh ESE 5.0 mph8.0 kmh 30.42 in1030.1 mb 0.00 in0.0 mm 0.00 in0.0 mm 0.00 in0.0 mm
10:35 PM 25.8°F-3.4°C 18.4°F-7.6°C 73% 4.0 mph SE6.4 kmh SE 6.0 mph9.7 kmh 30.42 in1030.1 mb 0.00 in0.0 mm 0.00 in0.0 mm 0.00 in0.0 mm
10:40 PM 25.8°F-3.4°C 18.4°F-7.6°C 73% 3.0 mph SE4.8 kmh SE 6.0 mph9.7 kmh 30.42 in1030.1 mb 0.00 in0.0 mm 0.00 in0.0 mm 0.00 in0.0 mm
10:45 PM 25.8°F-3.4°C 18.4°F-7.6°C 73% 5.0 mph SE8.0 kmh SE 8.0 mph12.9 kmh 30.41 in1029.8 mb 0.00 in0.0 mm 0.00 in0.0 mm 0.00 in0.0 mm
10:50 PM 25.8°F-3.4°C 18.4°F-7.6°C 73% 3.0 mph SE4.8 kmh SE 7.0 mph11.3 kmh 30.41 in1029.8 mb 0.00 in0.0 mm 0.00 in0.0 mm 0.00 in0.0 mm
10:55 PM 25.7°F-3.5°C 18.3°F-7.6°C 73% 6.0 mph SE9.7 kmh SE 8.0 mph12.9 kmh 30.41 in1029.8 mb 0.00 in0.0 mm 0.00 in0.0 mm 0.00 in0.0 mm
11:00 PM 25.7°F-3.5°C 18.3°F-7.6°C 73% 4.0 mph SE6.4 kmh SE 8.0 mph12.9 kmh 30.41 in1029.8 mb 0.00 in0.0 mm 0.00 in0.0 mm 0.00 in0.0 mm
11:05 PM 25.6°F-3.6°C 18.2°F-7.7°C 73% 4.0 mph SSE6.4 kmh SSE 9.0 mph14.5 kmh 30.41 in1029.8 mb 0.00 in0.0 mm 0.00 in0.0 mm 0.00 in0.0 mm
11:10 PM 25.6°F-3.6°C 18.2°F-7.7°C 73% 3.0 mph SSE4.8 kmh SSE 9.0 mph14.5 kmh 30.41 in1029.8 mb 0.00 in0.0 mm 0.00 in0.0 mm 0.00 in0.0 mm
11:15 PM 25.5°F-3.6°C 18.4°F-7.6°C 74% 2.0 mph SE3.2 kmh SE 9.0 mph14.5 kmh 30.42 in1030.1 mb 0.00 in0.0 mm 0.00 in0.0 mm 0.00 in0.0 mm
11:20 PM 25.3°F-3.7°C 18.2°F-7.7°C 74% 2.0 mph SSE3.2 kmh SSE 7.0 mph11.3 kmh 30.41 in1029.8 mb 0.00 in0.0 mm 0.00 in0.0 mm 0.00 in0.0 mm
11:25 PM 25.1°F-3.8°C 18.0°F-7.8°C 74% 1.0 mph SSE1.6 kmh SSE 7.0 mph11.3 kmh 30.41 in1029.8 mb 0.00 in0.0 mm 0.00 in0.0 mm 0.00 in0.0 mm
11:30 PM 24.9°F-3.9°C 18.1°F-7.7°C 75% 2.0 mph SSE3.2 kmh SSE 7.0 mph11.3 kmh 30.41 in1029.8 mb 0.00 in0.0 mm 0.00 in0.0 mm 0.00 in0.0 mm
11:35 PM 24.8°F-4.0°C 18.0°F-7.8°C 75% 6.0 mph SSE9.7 kmh SSE 8.0 mph12.9 kmh 30.41 in1029.8 mb 0.00 in0.0 mm 0.00 in0.0 mm 0.00 in0.0 mm
11:40 PM 24.8°F-4.0°C 18.0°F-7.8°C 75% 2.0 mph SSE3.2 kmh SSE 8.0 mph12.9 kmh 30.41 in1029.8 mb 0.00 in0.0 mm 0.00 in0.0 mm 0.00 in0.0 mm
11:45 PM 24.7°F-4.1°C 17.9°F-7.8°C 75% 3.0 mph SSE4.8 kmh SSE 8.0 mph12.9 kmh 30.41 in1029.8 mb 0.00 in0.0 mm 0.00 in0.0 mm 0.00 in0.0 mm
11:50 PM 24.5°F-4.2°C 17.7°F-7.9°C 75% 4.0 mph SE6.4 kmh SE 7.0 mph11.3 kmh 30.40 in1029.5 mb 0.00 in0.0 mm 0.00 in0.0 mm 0.00 in0.0 mm
11:55 PM 24.2°F-4.3°C 17.4°F-8.1°C 75% 4.0 mph S6.4 kmh S 9.0 mph14.5 kmh 30.40 in1029.5 mb 0.00 in0.0 mm 0.00 in0.0 mm 0.00 in0.0 mm